Lamont, Washington
Current Conditions -  °F | °C
As of 5:58 PM on Tuesday 25 Nov 2014 (Local Time) from KSKA Reporting Station
Light Rain Light Rain  
Wind Chill: 29°   Ceiling: Unl
Heat Index: 33°   Visibility: 10mi
Dew Point: 33°   Wind: 5mph
Humidity: 99%   Direction: 10°N
Pressure: 30.18"   Gusts: NA
Location:  47.2°N, 117.91°W
Report Text: KSKA 260158Z AUTO 01004KT 10SM -RA SCT017 01/00 A3018 RMK AO2 SNB0118E0143RAE0118B0143 SLP244 P0001 T00050004
Loading
Personal Weather Stations






























Interactive Weather Map New forecast layout! Learn more

10-Day Weather Forecast

Advertisements
Track Severe Weather on mobile